createdAt,value
2022-11-26T00:00:01.483Z,5.21
2022-11-26T00:01:01.491Z,5.22
2022-11-26T00:02:01.538Z,5.24
2022-11-26T00:03:01.584Z,5.23
2022-11-26T00:04:01.511Z,5.21
2022-11-26T00:05:01.557Z,5.17
2022-11-26T00:06:01.522Z,5.18
2022-11-26T00:07:01.529Z,5.18
2022-11-26T00:08:01.535Z,5.15
2022-11-26T00:09:01.540Z,5.14
2022-11-26T00:10:01.545Z,5.16
2022-11-26T00:11:01.555Z,5.16
2022-11-26T00:12:01.562Z,5.16
2022-11-26T00:13:01.572Z,5.18
2022-11-26T00:14:01.579Z,5.16
2022-11-26T00:15:01.591Z,5.17
2022-11-26T00:16:01.596Z,5.18
2022-11-26T00:17:01.661Z,5.18
2022-11-26T00:18:01.611Z,5.22
2022-11-26T00:19:01.620Z,5.22
2022-11-26T00:20:01.623Z,5.20
2022-11-26T00:21:01.634Z,5.18
2022-11-26T00:22:01.640Z,5.22
2022-11-26T00:23:01.654Z,5.22
2022-11-26T00:24:01.658Z,5.20
2022-11-26T00:25:01.665Z,5.20
2022-11-26T00:26:01.672Z,5.22
2022-11-26T00:27:01.680Z,5.23
2022-11-26T00:28:01.683Z,5.24
2022-11-26T00:29:01.689Z,5.25
2022-11-26T00:30:01.707Z,5.26
2022-11-26T00:31:01.716Z,5.28
2022-11-26T00:32:01.751Z,5.33
2022-11-26T00:33:01.733Z,5.34
2022-11-26T00:34:01.737Z,5.38
2022-11-26T00:35:01.749Z,5.35
2022-11-26T00:36:01.754Z,5.38
2022-11-26T00:37:01.766Z,5.36
2022-11-26T00:38:01.771Z,5.39
2022-11-26T00:39:01.784Z,5.35
2022-11-26T00:40:01.796Z,5.36
2022-11-26T00:41:01.799Z,5.36
2022-11-26T00:42:01.803Z,5.37
2022-11-26T00:43:02.237Z,5.38
2022-11-26T00:44:01.818Z,5.38
2022-11-26T00:45:01.823Z,5.38
2022-11-26T00:46:01.840Z,5.38
2022-11-26T00:47:01.835Z,5.36
2022-11-26T00:48:01.849Z,5.35
2022-11-26T00:49:01.847Z,5.31
2022-11-26T00:50:01.857Z,5.30
2022-11-26T00:51:01.865Z,5.29
2022-11-26T00:52:01.867Z,5.27
2022-11-26T00:53:01.876Z,5.26
2022-11-26T00:54:01.883Z,5.27
2022-11-26T00:55:01.893Z,5.26
2022-11-26T00:56:01.896Z,5.25
2022-11-26T00:57:01.904Z,5.24
2022-11-26T00:58:01.911Z,5.22
2022-11-26T00:59:01.917Z,5.19
2022-11-26T01:00:01.925Z,5.19
2022-11-26T01:01:01.934Z,5.17
2022-11-26T01:02:02.001Z,5.17
2022-11-26T01:03:01.949Z,5.20
2022-11-26T01:04:01.950Z,5.16
2022-11-26T01:05:01.957Z,5.13
2022-11-26T01:06:01.967Z,5.10
2022-11-26T01:07:01.973Z,5.08
2022-11-26T01:08:01.978Z,5.07
2022-11-26T01:09:01.987Z,5.06
2022-11-26T01:10:01.995Z,5.07
2022-11-26T01:11:02.014Z,5.07
2022-11-26T01:12:02.010Z,5.07
2022-11-26T01:13:02.017Z,5.07
2022-11-26T01:14:02.021Z,5.06
2022-11-26T01:15:02.028Z,5.05
2022-11-26T01:16:02.087Z,5.05
2022-11-26T01:17:02.088Z,5.04
2022-11-26T01:18:02.051Z,5.05
2022-11-26T01:19:02.062Z,5.06
2022-11-26T01:20:02.074Z,5.05
2022-11-26T01:21:02.077Z,5.05
2022-11-26T01:22:02.088Z,5.03
2022-11-26T01:23:02.096Z,5.04
2022-11-26T01:24:02.112Z,4.99
2022-11-26T01:25:02.108Z,5.00
2022-11-26T01:26:06.194Z,4.98
2022-11-26T01:27:02.123Z,4.97
2022-11-26T01:28:02.129Z,4.97
2022-11-26T01:29:02.137Z,4.92
2022-11-26T01:30:02.148Z,4.91
2022-11-26T01:31:02.153Z,4.86
2022-11-26T01:32:02.199Z,4.87
2022-11-26T01:33:02.166Z,4.88
2022-11-26T01:51:02.672Z,4.88
2022-11-26T01:52:02.307Z,4.88
2022-11-26T01:53:02.316Z,4.83
2022-11-26T01:54:02.319Z,4.82
2022-11-26T01:55:02.329Z,4.80
2022-11-26T01:56:02.335Z,4.77
2022-11-26T01:57:02.344Z,4.76
2022-11-26T01:58:02.347Z,4.75
2022-11-26T01:59:02.348Z,4.72
2022-11-26T02:00:02.364Z,4.70
2022-11-26T02:01:02.395Z,4.71
2022-11-26T02:02:02.420Z,4.71
2022-11-26T02:03:02.378Z,4.72
2022-11-26T02:04:02.378Z,4.73
2022-11-26T02:05:02.397Z,4.75
2022-11-26T02:06:02.395Z,4.75
2022-11-26T02:07:02.401Z,4.76
2022-11-26T02:08:02.410Z,4.77
2022-11-26T02:09:02.416Z,4.77
2022-11-26T02:10:02.423Z,4.77
2022-11-26T02:11:02.431Z,4.78
2022-11-26T02:12:02.444Z,4.78
2022-11-26T02:13:02.452Z,4.81
2022-11-26T02:14:02.460Z,4.81
2022-11-26T02:15:02.468Z,4.81
2022-11-26T02:16:02.523Z,4.80
2022-11-26T02:17:02.482Z,4.80
2022-11-26T02:18:02.491Z,4.79
2022-11-26T02:19:02.497Z,4.78
2022-11-26T02:20:02.504Z,4.78
2022-11-26T02:21:02.511Z,4.79
2022-11-26T02:22:02.519Z,4.80
2022-11-26T02:23:02.527Z,4.79
2022-11-26T02:24:02.540Z,4.80
2022-11-26T02:25:02.542Z,4.81
2022-11-26T02:26:02.551Z,4.78
2022-11-26T02:27:02.557Z,4.77
2022-11-26T02:28:02.566Z,4.77
2022-11-26T02:29:02.573Z,4.76
2022-11-26T02:30:02.583Z,4.75
2022-11-26T02:31:02.589Z,4.73
2022-11-26T02:32:02.649Z,4.71
2022-11-26T02:33:02.605Z,4.68
2022-11-26T02:34:02.614Z,4.65
2022-11-26T02:35:02.631Z,4.64
2022-11-26T02:36:02.634Z,4.62
2022-11-26T02:37:02.638Z,4.59
2022-11-26T02:38:02.649Z,4.59
2022-11-26T02:39:02.655Z,4.61
2022-11-26T02:40:02.663Z,4.56
2022-11-26T02:41:02.675Z,4.57
2022-11-26T02:42:02.682Z,4.56
2022-11-26T02:43:02.685Z,4.62
2022-11-26T02:44:02.697Z,4.58
2022-11-26T02:45:02.706Z,4.59
2022-11-26T02:46:02.734Z,4.57
2022-11-26T02:47:02.722Z,4.57
2022-11-26T02:48:02.726Z,4.54
2022-11-26T02:49:02.734Z,4.51
2022-11-26T02:50:02.742Z,4.46
2022-11-26T02:51:02.747Z,4.44
2022-11-26T02:52:02.755Z,4.43
2022-11-26T02:53:02.764Z,4.42
2022-11-26T02:54:02.770Z,4.40
2022-11-26T02:55:02.782Z,4.40
2022-11-26T02:56:02.787Z,4.41
2022-11-26T02:57:02.794Z,4.41
2022-11-26T02:58:02.799Z,4.41
2022-11-26T02:59:02.807Z,4.41
2022-11-26T03:00:02.812Z,4.41
2022-11-26T03:01:02.934Z,4.41
2022-11-26T03:02:02.823Z,4.40
2022-11-26T03:03:02.831Z,4.40
2022-11-26T03:04:02.877Z,4.41
2022-11-26T03:05:02.843Z,4.39
2022-11-26T03:06:02.852Z,4.40
2022-11-26T03:07:02.862Z,4.42
2022-11-26T03:08:02.871Z,4.41
2022-11-26T03:09:02.872Z,4.40
2022-11-26T03:10:02.885Z,4.41
2022-11-26T03:11:02.891Z,4.42
2022-11-26T03:12:02.988Z,4.46
2022-11-26T03:13:02.911Z,4.50
2022-11-26T03:14:02.917Z,4.54
2022-11-26T03:15:02.921Z,4.55
2022-11-26T03:16:02.961Z,4.59
2022-11-26T03:17:02.945Z,4.60
2022-11-26T03:18:02.951Z,4.61
2022-11-26T03:19:02.963Z,4.62
2022-11-26T03:20:02.970Z,4.64
2022-11-26T03:21:02.981Z,4.62
2022-11-26T03:22:02.988Z,4.64
2022-11-26T03:23:03.002Z,4.65
2022-11-26T03:24:03.004Z,4.66
2022-11-26T03:25:03.012Z,4.69
2022-11-26T03:26:03.022Z,4.70
2022-11-26T03:27:03.045Z,4.72
2022-11-26T03:28:03.042Z,4.72
2022-11-26T03:29:03.049Z,4.72
2022-11-26T03:30:03.053Z,4.73
2022-11-26T03:31:03.059Z,4.75
2022-11-26T03:32:03.118Z,4.77
2022-11-26T03:33:03.073Z,4.78
2022-11-26T03:34:03.085Z,4.79
2022-11-26T03:35:03.088Z,4.81
2022-11-26T03:36:03.126Z,4.82
2022-11-26T03:37:03.103Z,4.84
2022-11-26T03:38:03.113Z,4.85
2022-11-26T03:39:03.115Z,4.86
2022-11-26T03:40:03.124Z,4.90
2022-11-26T03:41:03.124Z,4.92
2022-11-26T03:42:03.136Z,4.92
2022-11-26T03:43:03.144Z,4.93
2022-11-26T03:44:03.151Z,4.95
2022-11-26T03:45:03.163Z,4.96
2022-11-26T03:46:03.215Z,4.99
2022-11-26T03:47:03.178Z,4.98
2022-11-26T03:48:03.186Z,5.00
2022-11-26T03:49:03.196Z,4.98
2022-11-26T03:50:03.205Z,5.02
2022-11-26T03:51:03.214Z,5.01
2022-11-26T03:52:03.224Z,5.03
2022-11-26T03:53:03.234Z,5.02
2022-11-26T03:54:03.244Z,5.05
2022-11-26T03:55:03.256Z,5.04
2022-11-26T03:56:03.253Z,5.05
2022-11-26T03:57:03.266Z,5.05
2022-11-26T03:58:03.277Z,5.06
2022-11-26T03:59:03.284Z,5.07
2022-11-26T04:00:03.289Z,5.06
2022-11-26T04:01:03.353Z,5.07
2022-11-26T04:02:03.309Z,5.09
2022-11-26T04:03:03.371Z,5.09
2022-11-26T04:04:03.329Z,5.15
2022-11-26T04:05:03.342Z,5.13
2022-11-26T04:06:03.347Z,5.17
2022-11-26T04:07:03.358Z,5.16
2022-11-26T04:08:03.364Z,5.21
2022-11-26T04:09:03.373Z,5.19
2022-11-26T04:10:03.381Z,5.21
2022-11-26T04:11:03.388Z,5.22
2022-11-26T04:12:03.395Z,5.23
2022-11-26T04:13:03.402Z,5.25
2022-11-26T04:14:03.415Z,5.27
2022-11-26T04:15:03.424Z,5.27
2022-11-26T04:16:03.428Z,5.31
2022-11-26T04:17:03.508Z,5.32
2022-11-26T04:18:03.448Z,5.33
2022-11-26T04:19:03.456Z,5.33
2022-11-26T04:20:03.463Z,5.34
2022-11-26T04:21:03.471Z,5.34
2022-11-26T04:22:03.474Z,5.34
2022-11-26T04:23:03.485Z,5.35
2022-11-26T04:24:03.491Z,5.36
2022-11-26T04:25:03.507Z,5.37
2022-11-26T04:26:03.526Z,5.38
2022-11-26T04:27:03.522Z,5.38
2022-11-26T04:28:03.528Z,5.40
2022-11-26T04:29:03.535Z,5.40
2022-11-26T04:30:03.541Z,5.40
2022-11-26T04:31:03.550Z,5.43
2022-11-26T04:32:03.633Z,5.43
2022-11-26T04:33:03.561Z,5.45
2022-11-26T04:34:03.570Z,5.45
2022-11-26T04:35:03.579Z,5.46
2022-11-26T04:36:03.587Z,5.49
2022-11-26T04:37:03.592Z,5.49
2022-11-26T04:38:03.598Z,5.48
2022-11-26T04:39:03.609Z,5.46
2022-11-26T04:40:03.607Z,5.47
2022-11-26T04:41:03.620Z,5.47
2022-11-26T04:42:03.631Z,5.47
2022-11-26T04:43:03.633Z,5.49
2022-11-26T04:44:03.639Z,5.47
2022-11-26T04:45:03.647Z,5.46
2022-11-26T04:46:03.692Z,5.49
2022-11-26T04:47:03.662Z,5.48
2022-11-26T04:48:03.667Z,5.50
2022-11-26T04:49:03.679Z,5.53
2022-11-26T04:50:03.703Z,5.53
2022-11-26T04:51:03.704Z,5.55
2022-11-26T04:52:03.699Z,5.56
2022-11-26T04:53:03.710Z,5.57
2022-11-26T04:54:05.577Z,5.58
2022-11-26T04:55:03.731Z,5.59
2022-11-26T04:56:03.742Z,5.60
2022-11-26T04:57:03.744Z,5.60
2022-11-26T04:58:03.754Z,5.62
2022-11-26T04:59:03.769Z,5.62
2022-11-26T05:00:03.784Z,5.63
2022-11-26T05:01:03.904Z,5.62
2022-11-26T05:02:03.789Z,5.63
2022-11-26T05:03:03.851Z,5.63
2022-11-26T05:04:03.813Z,5.65
2022-11-26T05:05:03.823Z,5.65
2022-11-26T05:06:03.830Z,5.64
2022-11-26T05:07:03.836Z,5.64
2022-11-26T05:08:03.845Z,5.62
2022-11-26T05:09:03.872Z,5.61
2022-11-26T05:10:03.871Z,5.63
2022-11-26T05:11:03.873Z,5.63
2022-11-26T05:12:03.913Z,5.66
2022-11-26T05:13:03.898Z,5.66
2022-11-26T05:14:03.895Z,5.67
2022-11-26T05:15:03.908Z,5.67
2022-11-26T05:16:03.910Z,5.66
2022-11-26T05:17:03.974Z,5.67
2022-11-26T05:18:03.924Z,5.66
2022-11-26T05:19:03.937Z,5.65
2022-11-26T05:20:03.942Z,5.67
2022-11-26T05:21:03.952Z,5.68
2022-11-26T05:22:03.959Z,5.70
2022-11-26T05:23:03.966Z,5.68
2022-11-26T05:24:03.978Z,5.70
2022-11-26T05:25:03.984Z,5.70
2022-11-26T05:26:04.003Z,5.71
2022-11-26T05:27:04.001Z,5.68
2022-11-26T05:28:04.011Z,5.71
2022-11-26T05:29:04.019Z,5.70
2022-11-26T05:30:04.026Z,5.71
2022-11-26T05:31:04.064Z,5.71
2022-11-26T05:32:04.089Z,5.72
2022-11-26T05:33:04.055Z,5.72
2022-11-26T05:34:04.061Z,5.74
2022-11-26T05:35:04.068Z,5.72
2022-11-26T05:36:04.076Z,5.73
2022-11-26T05:37:04.081Z,5.71
2022-11-26T05:38:04.091Z,5.73
2022-11-26T05:39:04.095Z,5.74
2022-11-26T05:40:04.100Z,5.74
2022-11-26T05:41:04.106Z,5.77
2022-11-26T05:42:08.888Z,5.76
2022-11-26T05:43:04.124Z,5.76
2022-11-26T05:44:04.131Z,5.77
2022-11-26T05:45:04.142Z,5.76
2022-11-26T05:46:04.190Z,5.79
2022-11-26T05:47:04.155Z,5.79
2022-11-26T05:48:04.167Z,5.80
2022-11-26T05:49:04.174Z,5.80
2022-11-26T05:50:04.184Z,5.81
2022-11-26T05:51:04.189Z,5.82
2022-11-26T05:52:04.201Z,5.83
2022-11-26T05:53:04.204Z,5.82
2022-11-26T05:54:04.214Z,5.82
2022-11-26T05:55:04.321Z,5.82
2022-11-26T05:56:04.233Z,5.83
2022-11-26T05:57:04.240Z,5.82
2022-11-26T05:58:04.249Z,5.79
2022-11-26T05:59:04.256Z,5.80
2022-11-26T06:00:04.269Z,5.79
2022-11-26T06:01:04.276Z,5.75
2022-11-26T06:02:04.340Z,5.76
2022-11-26T06:03:04.431Z,5.77
2022-11-26T06:04:04.302Z,5.77
2022-11-26T06:05:04.311Z,5.79
2022-11-26T06:06:04.319Z,5.80
2022-11-26T06:07:04.328Z,5.78
2022-11-26T06:08:04.408Z,5.80
2022-11-26T06:09:04.343Z,5.80
2022-11-26T06:10:04.355Z,5.80
2022-11-26T06:11:04.361Z,5.80
2022-11-26T06:12:04.372Z,5.81
2022-11-26T06:13:04.381Z,5.81
2022-11-26T06:14:04.392Z,5.82
2022-11-26T06:15:04.403Z,5.82
2022-11-26T06:16:04.462Z,5.84
2022-11-26T06:17:04.419Z,5.82
2022-11-26T06:18:04.430Z,5.82
2022-11-26T06:19:04.438Z,5.83
2022-11-26T06:20:04.447Z,5.84
2022-11-26T06:21:04.455Z,5.84
2022-11-26T06:22:04.465Z,5.85
2022-11-26T06:23:04.477Z,5.85
2022-11-26T06:24:04.488Z,5.86
2022-11-26T06:25:04.490Z,5.86
2022-11-26T06:26:04.500Z,5.85
2022-11-26T06:27:04.510Z,5.86
2022-11-26T06:28:04.521Z,5.86
2022-11-26T06:29:04.531Z,5.86
2022-11-26T06:30:04.539Z,5.88
2022-11-26T06:31:04.585Z,5.87
2022-11-26T06:32:04.555Z,5.89
2022-11-26T06:33:04.570Z,5.86
2022-11-26T06:34:04.575Z,5.88
2022-11-26T06:35:04.587Z,5.85
2022-11-26T06:36:04.600Z,5.86
2022-11-26T06:37:04.605Z,5.86
2022-11-26T06:38:04.619Z,5.87
2022-11-26T06:39:04.625Z,5.88
2022-11-26T06:40:04.634Z,5.89
2022-11-26T06:41:04.644Z,5.90
2022-11-26T06:42:04.655Z,5.91
2022-11-26T06:43:04.667Z,5.93
2022-11-26T06:44:04.675Z,5.92
2022-11-26T06:45:04.686Z,5.91
2022-11-26T06:46:04.724Z,5.91
2022-11-26T06:47:04.698Z,5.92
2022-11-26T06:48:04.708Z,5.92
2022-11-26T06:49:04.713Z,5.91
2022-11-26T06:50:09.346Z,5.92
2022-11-26T06:51:04.728Z,5.93
2022-11-26T06:52:04.738Z,5.94
2022-11-26T06:53:04.742Z,5.95
2022-11-26T06:54:04.754Z,5.96
2022-11-26T06:55:04.762Z,5.96
2022-11-26T06:56:04.767Z,5.97
2022-11-26T06:57:04.773Z,6.00
2022-11-26T06:58:04.782Z,5.97
2022-11-26T06:59:04.793Z,5.97
2022-11-26T07:00:04.797Z,5.97
2022-11-26T07:01:04.830Z,5.96
2022-11-26T07:02:04.912Z,5.96
2022-11-26T07:03:04.824Z,5.95
2022-11-26T07:04:04.829Z,5.96
2022-11-26T07:05:04.839Z,5.96
2022-11-26T07:06:12.579Z,5.97
2022-11-26T07:07:04.850Z,5.98
2022-11-26T07:08:04.854Z,6.00
2022-11-26T07:09:04.865Z,5.99
2022-11-26T07:10:04.872Z,6.01
2022-11-26T07:11:04.879Z,6.01
2022-11-26T07:12:04.889Z,6.01
2022-11-26T07:13:04.897Z,6.02
2022-11-26T07:14:04.908Z,6.01
2022-11-26T07:15:04.915Z,6.03
2022-11-26T07:16:05.038Z,6.02
2022-11-26T07:17:04.933Z,6.04
2022-11-26T07:18:04.941Z,6.03
2022-11-26T07:19:04.952Z,6.05
2022-11-26T07:20:04.971Z,6.05
2022-11-26T07:21:04.979Z,6.02
2022-11-26T07:22:04.988Z,6.03
2022-11-26T07:23:04.993Z,6.01
2022-11-26T07:24:05.000Z,5.99
2022-11-26T07:25:08.169Z,6.02
2022-11-26T07:26:05.020Z,6.01
2022-11-26T07:27:05.023Z,6.03
2022-11-26T07:28:05.031Z,6.05
2022-11-26T07:29:05.037Z,6.07
2022-11-26T07:30:05.046Z,6.07
2022-11-26T07:31:05.093Z,6.09
2022-11-26T07:32:05.061Z,6.10
2022-11-26T07:33:05.070Z,6.11
2022-11-26T07:34:05.081Z,6.13
2022-11-26T07:35:05.082Z,6.12
2022-11-26T07:36:05.099Z,6.14
2022-11-26T07:37:05.102Z,6.13
2022-11-26T07:38:05.109Z,6.13
2022-11-26T07:39:05.118Z,6.11
2022-11-26T07:40:05.137Z,6.10
2022-11-26T07:41:05.133Z,6.11
2022-11-26T07:42:05.143Z,6.11
2022-11-26T07:43:05.151Z,6.12
2022-11-26T07:44:05.155Z,6.14
2022-11-26T07:45:05.174Z,6.13
2022-11-26T07:46:05.246Z,6.15
2022-11-26T07:47:05.182Z,6.13
2022-11-26T07:48:05.188Z,6.15
2022-11-26T07:49:05.195Z,6.16
2022-11-26T07:50:05.205Z,6.18
2022-11-26T07:51:05.213Z,6.21
2022-11-26T07:52:05.217Z,6.22
2022-11-26T07:53:05.229Z,6.23
2022-11-26T07:54:05.236Z,6.24
2022-11-26T07:55:09.534Z,6.22
2022-11-26T07:56:05.250Z,6.24
2022-11-26T07:57:05.260Z,6.25
2022-11-26T07:58:05.273Z,6.26
2022-11-26T07:59:05.282Z,6.31
2022-11-26T08:00:05.290Z,6.31
2022-11-26T08:01:05.316Z,6.33
2022-11-26T08:02:05.402Z,6.36
2022-11-26T08:03:05.342Z,6.36
2022-11-26T08:04:05.328Z,6.37
2022-11-26T08:05:05.406Z,6.37
2022-11-26T08:06:05.348Z,6.38
2022-11-26T08:07:05.361Z,6.40
2022-11-26T08:08:05.447Z,6.43
2022-11-26T08:09:05.378Z,6.47
2022-11-26T08:10:05.397Z,6.52
2022-11-26T08:11:05.408Z,6.55
2022-11-26T08:12:05.406Z,6.58
2022-11-26T08:13:05.416Z,6.60
2022-11-26T08:14:05.426Z,6.61
2022-11-26T08:15:05.428Z,6.63
2022-11-26T08:16:05.496Z,6.66
2022-11-26T08:17:05.439Z,6.67
2022-11-26T08:18:05.445Z,6.70
2022-11-26T08:19:05.451Z,6.72
2022-11-26T08:20:05.461Z,6.73
2022-11-26T08:21:05.466Z,6.72
2022-11-26T08:22:05.476Z,6.70
2022-11-26T08:23:05.485Z,6.70
2022-11-26T08:24:05.492Z,6.70
2022-11-26T08:25:05.499Z,6.72
2022-11-26T08:26:21.865Z,6.74
2022-11-26T08:27:05.513Z,6.77
2022-11-26T08:28:05.522Z,6.79
2022-11-26T08:29:05.533Z,6.81
2022-11-26T08:30:05.536Z,6.83
2022-11-26T08:31:05.595Z,6.84
2022-11-26T08:32:05.616Z,6.86
2022-11-26T08:33:05.562Z,6.87
2022-11-26T08:34:05.568Z,6.88
2022-11-26T08:35:05.582Z,6.90
2022-11-26T08:36:07.400Z,6.93
2022-11-26T08:37:05.589Z,6.95
2022-11-26T08:38:05.595Z,6.95
2022-11-26T08:39:05.600Z,6.96
2022-11-26T08:40:05.607Z,6.96
2022-11-26T08:41:05.620Z,6.97
2022-11-26T08:42:05.627Z,7.00
2022-11-26T08:43:05.639Z,7.01
2022-11-26T08:44:07.339Z,7.01
2022-11-26T08:45:05.654Z,7.02
2022-11-26T08:46:05.699Z,7.03
2022-11-26T08:47:05.669Z,7.05
2022-11-26T08:48:05.676Z,7.06
2022-11-26T08:49:05.690Z,7.06
2022-11-26T08:50:05.688Z,7.05
2022-11-26T08:51:05.695Z,7.05
2022-11-26T08:52:05.709Z,7.08
2022-11-26T08:53:05.719Z,7.05
2022-11-26T08:54:05.739Z,7.03
2022-11-26T08:55:05.753Z,7.06
2022-11-26T08:56:05.743Z,7.07
2022-11-26T08:57:05.755Z,7.10
2022-11-26T08:58:05.762Z,7.12
2022-11-26T08:59:05.777Z,7.16
2022-11-26T09:00:05.777Z,7.20
2022-11-26T09:01:05.835Z,7.19
2022-11-26T09:02:05.801Z,7.21
2022-11-26T09:03:05.926Z,7.27
2022-11-26T09:04:05.823Z,7.26
2022-11-26T09:05:05.835Z,7.28
2022-11-26T09:06:05.850Z,7.31
2022-11-26T09:07:05.856Z,7.32
2022-11-26T09:08:05.939Z,7.36
2022-11-26T09:09:05.881Z,7.38
2022-11-26T09:10:05.884Z,7.39
2022-11-26T09:11:05.896Z,7.41
2022-11-26T09:12:05.986Z,7.44
2022-11-26T09:13:05.931Z,7.43
2022-11-26T09:14:05.936Z,7.47
2022-11-26T09:15:05.980Z,7.47
2022-11-26T09:16:06.022Z,7.50
2022-11-26T09:17:05.971Z,7.53
2022-11-26T09:18:05.976Z,7.56
2022-11-26T09:19:05.982Z,7.58
2022-11-26T09:20:05.982Z,7.58
2022-11-26T09:21:05.988Z,7.59
2022-11-26T09:22:05.995Z,7.61
2022-11-26T09:23:06.006Z,7.63
2022-11-26T09:24:06.017Z,7.66
2022-11-26T09:25:06.026Z,7.69
2022-11-26T09:26:06.030Z,7.70
2022-11-26T09:27:07.945Z,7.69
2022-11-26T09:28:06.050Z,7.68
2022-11-26T09:29:06.061Z,7.73
2022-11-26T09:30:06.067Z,7.72
2022-11-26T09:31:06.080Z,7.71
2022-11-26T09:33:06.165Z,7.75
2022-11-26T09:34:06.103Z,7.76
2022-11-26T09:35:06.132Z,7.75
2022-11-26T09:36:06.117Z,7.76
2022-11-26T09:37:06.124Z,7.77
2022-11-26T09:38:06.131Z,7.77
2022-11-26T09:39:06.141Z,7.80
2022-11-26T09:40:06.150Z,7.82
2022-11-26T09:41:06.161Z,7.83
2022-11-26T09:42:06.170Z,7.80
2022-11-26T09:43:06.182Z,7.85
2022-11-26T09:44:06.187Z,7.81
2022-11-26T09:45:06.202Z,7.82
2022-11-26T09:46:06.266Z,7.85
2022-11-26T09:47:13.643Z,7.86
2022-11-26T09:48:06.222Z,7.86
2022-11-26T09:49:06.226Z,7.87
2022-11-26T09:50:06.244Z,7.89
2022-11-26T09:51:06.244Z,7.91
2022-11-26T09:52:06.247Z,7.92
2022-11-26T09:53:06.252Z,7.92
2022-11-26T09:54:06.261Z,7.94
2022-11-26T09:55:06.310Z,7.94
2022-11-26T09:56:06.281Z,7.90
2022-11-26T09:57:06.292Z,7.93
2022-11-26T09:58:06.306Z,7.96
2022-11-26T09:59:06.313Z,7.99
2022-11-26T10:00:06.322Z,8.04
2022-11-26T10:01:06.357Z,8.08
2022-11-26T10:02:06.379Z,8.10
2022-11-26T10:03:06.360Z,8.11
2022-11-26T10:04:06.366Z,8.13
2022-11-26T10:05:06.377Z,8.15
2022-11-26T10:06:06.386Z,8.15
2022-11-26T10:07:06.396Z,8.20
2022-11-26T10:08:06.406Z,8.18
2022-11-26T10:09:06.418Z,8.19
2022-11-26T10:10:06.428Z,8.21
2022-11-26T10:11:06.433Z,8.22
2022-11-26T10:12:06.482Z,8.23
2022-11-26T10:14:06.463Z,8.20
2022-11-26T10:15:06.472Z,8.16
2022-11-26T10:16:06.559Z,8.15
2022-11-26T10:17:06.479Z,8.13
2022-11-26T10:18:06.494Z,8.12
2022-11-26T10:19:06.514Z,8.10
2022-11-26T10:20:06.510Z,8.09
2022-11-26T10:21:06.514Z,8.07
2022-11-26T10:22:06.522Z,8.07
2022-11-26T10:23:06.535Z,8.08
2022-11-26T10:24:06.547Z,8.12
2022-11-26T10:25:06.559Z,8.17
2022-11-26T10:26:06.572Z,8.22
2022-11-26T10:27:06.581Z,8.19
2022-11-26T10:28:06.589Z,8.19
2022-11-26T10:29:06.601Z,8.21
2022-11-26T10:30:06.609Z,8.22
2022-11-26T10:31:06.661Z,8.19
2022-11-26T10:32:06.627Z,8.19
2022-11-26T10:33:06.632Z,8.17
2022-11-26T10:34:06.643Z,8.18
2022-11-26T10:35:06.652Z,8.19
2022-11-26T10:36:06.668Z,8.21
2022-11-26T10:37:06.675Z,8.21
2022-11-26T10:38:06.677Z,8.22
2022-11-26T10:39:06.689Z,8.19
2022-11-26T10:40:07.427Z,8.20
2022-11-26T10:41:06.707Z,8.21
2022-11-26T10:42:06.713Z,8.23
2022-11-26T10:43:06.724Z,8.26
2022-11-26T10:44:06.730Z,8.31
2022-11-26T10:45:11.035Z,8.34
2022-11-26T10:46:06.767Z,8.38
2022-11-26T10:47:06.759Z,8.43
2022-11-26T10:48:06.791Z,8.46
2022-11-26T10:49:06.782Z,8.48
2022-11-26T10:50:19.362Z,8.49
2022-11-26T10:51:06.800Z,8.53
2022-11-26T10:52:06.811Z,8.56
2022-11-26T10:53:06.825Z,8.55
2022-11-26T10:54:06.830Z,8.48
2022-11-26T10:55:06.843Z,8.48
2022-11-26T10:56:06.851Z,8.49
2022-11-26T10:57:06.865Z,8.49
2022-11-26T10:58:06.878Z,8.52
2022-11-26T10:59:06.888Z,8.56
2022-11-26T11:00:06.898Z,8.54
2022-11-26T11:01:06.967Z,8.55
2022-11-26T11:02:06.960Z,8.57
2022-11-26T11:03:06.936Z,8.61
2022-11-26T11:04:08.422Z,8.65
2022-11-26T11:05:06.951Z,8.67
2022-11-26T11:06:06.961Z,8.57
2022-11-26T11:07:11.746Z,8.54
2022-11-26T11:08:06.982Z,8.52
2022-11-26T11:09:06.992Z,8.56
2022-11-26T11:10:07.003Z,8.57
2022-11-26T11:11:07.008Z,8.70
2022-11-26T11:12:07.022Z,8.73
2022-11-26T11:13:07.028Z,8.81
2022-11-26T11:14:07.039Z,8.93
2022-11-26T11:15:07.053Z,9.03
2022-11-26T11:16:07.088Z,9.06
2022-11-26T11:17:07.066Z,9.15
2022-11-26T11:18:07.082Z,9.18
2022-11-26T11:19:07.090Z,9.23
2022-11-26T11:20:07.099Z,9.26
2022-11-26T11:21:07.110Z,9.25
2022-11-26T11:22:07.126Z,9.27
2022-11-26T11:23:07.129Z,9.30
2022-11-26T11:24:08.808Z,9.30
2022-11-26T11:25:07.150Z,9.30
2022-11-26T11:26:07.160Z,9.29
2022-11-26T11:27:07.165Z,9.19
2022-11-26T11:28:11.935Z,9.16
2022-11-26T11:29:07.179Z,9.15
2022-11-26T11:30:07.183Z,9.12
2022-11-26T11:31:07.218Z,9.08
2022-11-26T11:32:07.214Z,9.06
2022-11-26T11:33:07.216Z,9.02
2022-11-26T11:34:07.229Z,9.00
2022-11-26T11:35:07.242Z,8.95
2022-11-26T11:36:07.249Z,8.90
2022-11-26T11:37:09.556Z,8.89
2022-11-26T11:38:07.260Z,8.86
2022-11-26T11:39:07.273Z,8.87
2022-11-26T11:40:07.283Z,8.87
2022-11-26T11:41:07.297Z,8.85
2022-11-26T11:42:07.310Z,8.84
2022-11-26T11:43:07.321Z,8.84
2022-11-26T11:44:07.356Z,8.81
2022-11-26T11:45:07.341Z,8.80
2022-11-26T11:46:07.413Z,8.77
2022-11-26T11:47:07.360Z,8.75
2022-11-26T11:48:07.375Z,8.76
2022-11-26T11:49:07.371Z,8.78
2022-11-26T11:50:07.381Z,8.77
2022-11-26T11:51:07.394Z,8.77
2022-11-26T11:52:07.406Z,8.77
2022-11-26T11:53:07.414Z,8.75
2022-11-26T11:54:07.426Z,8.75
2022-11-26T11:55:07.439Z,8.76
2022-11-26T11:56:07.451Z,8.73
2022-11-26T11:57:07.461Z,8.76
2022-11-26T11:58:07.473Z,8.76
2022-11-26T11:59:07.486Z,8.73
2022-11-26T12:00:07.489Z,8.73
2022-11-26T12:01:07.504Z,8.69
2022-11-26T12:02:07.564Z,8.71
2022-11-26T12:03:10.357Z,8.71
2022-11-26T12:04:09.263Z,8.74
2022-11-26T12:05:07.543Z,8.76
2022-11-26T12:06:07.544Z,8.74
2022-11-26T12:07:07.559Z,8.74
2022-11-26T12:08:07.572Z,8.71
2022-11-26T12:09:07.587Z,8.68
2022-11-26T12:10:07.600Z,8.69
2022-11-26T12:11:07.609Z,8.68
2022-11-26T12:12:07.621Z,8.66
2022-11-26T12:13:07.664Z,8.66
2022-11-26T12:14:07.641Z,8.67
2022-11-26T12:15:07.649Z,8.64
2022-11-26T12:16:07.726Z,8.60
2022-11-26T12:17:07.711Z,8.54
2022-11-26T12:18:07.696Z,8.50
2022-11-26T12:19:07.699Z,8.45
2022-11-26T12:20:07.708Z,8.42
2022-11-26T12:21:07.711Z,8.33
2022-11-26T12:22:07.723Z,8.29
2022-11-26T12:23:11.538Z,8.19
2022-11-26T12:24:07.746Z,8.19
2022-11-26T12:25:07.753Z,8.21
2022-11-26T12:26:07.760Z,8.24
2022-11-26T12:27:07.771Z,8.31
2022-11-26T12:28:07.784Z,8.38
2022-11-26T12:29:07.798Z,8.43
2022-11-26T12:30:07.801Z,8.45
2022-11-26T12:31:07.807Z,8.48
2022-11-26T12:32:07.858Z,8.51
2022-11-26T12:33:07.826Z,8.54
2022-11-26T12:34:08.875Z,8.56
2022-11-26T12:35:07.856Z,8.56
2022-11-26T12:36:07.870Z,8.60
2022-11-26T12:37:07.882Z,8.60
2022-11-26T12:38:07.887Z,8.60
2022-11-26T12:39:07.893Z,8.59
2022-11-26T12:40:07.900Z,8.59
2022-11-26T12:41:07.910Z,8.61
2022-11-26T12:42:07.925Z,8.62
2022-11-26T12:43:07.939Z,8.60
2022-11-26T12:44:07.950Z,8.61
2022-11-26T12:45:07.965Z,8.62
2022-11-26T12:46:08.016Z,8.64
2022-11-26T12:47:07.984Z,8.65
2022-11-26T12:48:07.997Z,8.68
2022-11-26T12:49:08.010Z,8.70
2022-11-26T12:50:08.028Z,8.71
2022-11-26T12:51:08.037Z,8.70
2022-11-26T12:52:08.040Z,8.69
2022-11-26T12:53:08.063Z,8.72
2022-11-26T12:54:08.069Z,8.76
2022-11-26T12:55:08.073Z,8.77
2022-11-26T12:56:08.089Z,8.77
2022-11-26T12:57:08.095Z,8.79
2022-11-26T12:58:08.114Z,8.77
2022-11-26T12:59:08.118Z,8.81
2022-11-26T13:00:08.132Z,8.85
2022-11-26T13:01:08.178Z,8.88
2022-11-26T13:02:08.193Z,8.88
2022-11-26T13:03:08.156Z,8.87
2022-11-26T13:04:35.954Z,8.85
2022-11-26T13:05:08.169Z,8.80
2022-11-26T13:06:08.170Z,8.79
2022-11-26T13:07:08.188Z,8.78
2022-11-26T13:08:08.196Z,8.70
2022-11-26T13:09:08.208Z,8.70
2022-11-26T13:10:08.211Z,8.68
2022-11-26T13:11:09.977Z,8.65
2022-11-26T13:12:08.235Z,8.66
2022-11-26T13:13:08.251Z,8.70
2022-11-26T13:14:08.263Z,8.70
2022-11-26T13:15:08.305Z,8.72
2022-11-26T13:16:08.331Z,8.73
2022-11-26T13:17:08.303Z,8.70
2022-11-26T13:18:08.319Z,8.71
2022-11-26T13:19:08.326Z,8.68
2022-11-26T13:20:08.333Z,8.64
2022-11-26T13:21:08.350Z,8.61
2022-11-26T13:22:08.363Z,8.45
2022-11-26T13:23:08.372Z,8.42
2022-11-26T13:24:08.392Z,8.40
2022-11-26T13:25:08.400Z,8.35
2022-11-26T13:26:08.406Z,8.32
2022-11-26T13:27:08.419Z,8.29
2022-11-26T13:28:08.424Z,8.28
2022-11-26T13:29:08.473Z,8.27
2022-11-26T13:30:08.479Z,8.19
2022-11-26T13:31:08.458Z,8.12
2022-11-26T13:32:12.632Z,8.13
2022-11-26T13:33:08.477Z,8.12
2022-11-26T13:34:08.482Z,8.10
2022-11-26T13:35:08.489Z,8.10
2022-11-26T13:36:08.493Z,8.12
2022-11-26T13:37:08.509Z,8.12